sensor_id;sensor_type;location;lat;lon;timestamp;pressure;altitude;pressure_sealevel;temperature;humidity
28935;BME280;16044;52.726;-2.108;2023-07-29T00:01:32;99397.50;;;17.72;84.74
28935;BME280;16044;52.726;-2.108;2023-07-29T00:04:04;99391.91;;;17.67;84.69
28935;BME280;16044;52.726;-2.108;2023-07-29T00:06:35;99391.91;;;17.67;84.70
28935;BME280;16044;52.726;-2.108;2023-07-29T00:09:06;99400.09;;;17.62;84.86
28935;BME280;16044;52.726;-2.108;2023-07-29T00:11:38;99400.22;;;17.56;85.14
28935;BME280;16044;52.726;-2.108;2023-07-29T00:14:09;99401.09;;;17.56;84.86
28935;BME280;16044;52.726;-2.108;2023-07-29T00:16:39;99403.56;;;17.58;84.74
28935;BME280;16044;52.726;-2.108;2023-07-29T00:19:09;99404.81;;;17.50;85.03
28935;BME280;16044;52.726;-2.108;2023-07-29T00:21:40;99407.06;;;17.53;84.80
28935;BME280;16044;52.726;-2.108;2023-07-29T00:24:10;99410.84;;;17.52;84.68
28935;BME280;16044;52.726;-2.108;2023-07-29T00:26:43;99408.78;;;17.42;85.10
28935;BME280;16044;52.726;-2.108;2023-07-29T00:29:13;99409.38;;;17.44;84.73
28935;BME280;16044;52.726;-2.108;2023-07-29T00:31:44;99408.53;;;17.44;84.47
28935;BME280;16044;52.726;-2.108;2023-07-29T00:34:14;99397.00;;;17.42;84.25
28935;BME280;16044;52.726;-2.108;2023-07-29T00:36:46;99389.78;;;17.36;84.15
28935;BME280;16044;52.726;-2.108;2023-07-29T00:39:16;99391.84;;;17.28;84.13
28935;BME280;16044;52.726;-2.108;2023-07-29T00:41:49;99386.28;;;17.23;84.21
28935;BME280;16044;52.726;-2.108;2023-07-29T00:44:20;99388.34;;;17.16;84.57
28935;BME280;16044;52.726;-2.108;2023-07-29T00:46:50;99388.28;;;17.11;84.62
28935;BME280;16044;52.726;-2.108;2023-07-29T00:49:22;99385.78;;;17.09;84.42
28935;BME280;16044;52.726;-2.108;2023-07-29T00:51:52;99384.63;;;17.05;84.55
28935;BME280;16044;52.726;-2.108;2023-07-29T00:54:22;99386.44;;;17.00;84.73
28935;BME280;16044;52.726;-2.108;2023-07-29T00:56:55;99379.69;;;16.90;85.14
28935;BME280;16044;52.726;-2.108;2023-07-29T00:59:26;99376.94;;;16.90;84.64
28935;BME280;16044;52.726;-2.108;2023-07-29T01:01:59;99377.44;;;16.87;84.75
28935;BME280;16044;52.726;-2.108;2023-07-29T01:04:29;99374.59;;;16.82;84.70
28935;BME280;16044;52.726;-2.108;2023-07-29T01:07:16;99375.53;;;16.76;84.85
28935;BME280;16044;52.726;-2.108;2023-07-29T01:09:56;99381.53;;;16.73;84.82
28935;BME280;16044;52.726;-2.108;2023-07-29T01:12:40;99380.84;;;16.66;85.15
28935;BME280;16044;52.726;-2.108;2023-07-29T01:15:24;99377.50;;;16.64;85.02
28935;BME280;16044;52.726;-2.108;2023-07-29T01:18:02;99375.00;;;16.62;84.84
28935;BME280;16044;52.726;-2.108;2023-07-29T01:20:38;99381.53;;;16.61;85.03
28935;BME280;16044;52.726;-2.108;2023-07-29T01:23:10;99372.16;;;16.57;85.13
28935;BME280;16044;52.726;-2.108;2023-07-29T01:25:43;99373.25;;;16.56;84.91
28935;BME280;16044;52.726;-2.108;2023-07-29T01:28:13;99372.66;;;16.54;84.88
28935;BME280;16044;52.726;-2.108;2023-07-29T01:30:44;99369.91;;;16.54;84.83
28935;BME280;16044;52.726;-2.108;2023-07-29T01:33:18;99378.97;;;16.54;84.73
28935;BME280;16044;52.726;-2.108;2023-07-29T01:35:56;99380.25;;;16.52;84.82
28935;BME280;16044;52.726;-2.108;2023-07-29T01:38:30;99374.22;;;16.50;84.67
28935;BME280;16044;52.726;-2.108;2023-07-29T01:41:07;99368.66;;;16.45;84.58
28935;BME280;16044;52.726;-2.108;2023-07-29T01:43:38;99371.75;;;16.48;84.46
28935;BME280;16044;52.726;-2.108;2023-07-29T01:46:11;99368.66;;;16.45;84.53
28935;BME280;16044;52.726;-2.108;2023-07-29T01:48:42;99364.72;;;16.41;84.42
28935;BME280;16044;52.726;-2.108;2023-07-29T01:51:14;99358.66;;;16.38;84.35
28935;BME280;16044;52.726;-2.108;2023-07-29T01:53:44;99362.25;;;16.39;84.29
28935;BME280;16044;52.726;-2.108;2023-07-29T01:56:17;99355.09;;;16.38;84.18
28935;BME280;16044;52.726;-2.108;2023-07-29T01:58:47;99353.19;;;16.38;84.03
28935;BME280;16044;52.726;-2.108;2023-07-29T02:01:18;99348.34;;;16.29;84.36
28935;BME280;16044;52.726;-2.108;2023-07-29T02:03:48;99351.19;;;16.34;83.97
28935;BME280;16044;52.726;-2.108;2023-07-29T02:06:22;99351.19;;;16.34;83.89
28935;BME280;16044;52.726;-2.108;2023-07-29T02:08:55;99351.69;;;16.31;84.14
28935;BME280;16044;52.726;-2.108;2023-07-29T02:11:28;99364.28;;;16.32;84.31
28935;BME280;16044;52.726;-2.108;2023-07-29T02:13:58;99368.44;;;16.34;84.02
28935;BME280;16044;52.726;-2.108;2023-07-29T02:16:28;99362.25;;;16.27;84.29
28935;BME280;16044;52.726;-2.108;2023-07-29T02:18:59;99366.44;;;16.30;84.21
28935;BME280;16044;52.726;-2.108;2023-07-29T02:21:30;99371.91;;;16.30;84.06
28935;BME280;16044;52.726;-2.108;2023-07-29T02:24:00;99368.59;;;16.28;84.21
28935;BME280;16044;52.726;-2.108;2023-07-29T02:26:33;99354.31;;;16.26;84.42
28935;BME280;16044;52.726;-2.108;2023-07-29T02:29:04;99361.31;;;16.22;84.85
28935;BME280;16044;52.726;-2.108;2023-07-29T02:31:34;99358.00;;;16.20;84.76
28935;BME280;16044;52.726;-2.108;2023-07-29T02:34:05;99354.44;;;16.19;84.95
28935;BME280;16044;52.726;-2.108;2023-07-29T02:36:35;99356.34;;;16.18;84.92
28935;BME280;16044;52.726;-2.108;2023-07-29T02:39:05;99368.59;;;16.16;85.26
28935;BME280;16044;52.726;-2.108;2023-07-29T02:41:38;99361.72;;;16.13;85.36
28935;BME280;16044;52.726;-2.108;2023-07-29T02:44:09;99360.88;;;16.13;85.45
28935;BME280;16044;52.726;-2.108;2023-07-29T02:46:39;99357.34;;;16.12;85.25
28935;BME280;16044;52.726;-2.108;2023-07-29T02:49:09;99352.94;;;16.11;85.23
28935;BME280;16044;52.726;-2.108;2023-07-29T02:51:40;99349.00;;;16.07;85.67
28935;BME280;16044;52.726;-2.108;2023-07-29T02:54:10;99353.91;;;16.05;85.71
28935;BME280;16044;52.726;-2.108;2023-07-29T02:56:43;99349.72;;;16.03;85.89
28935;BME280;16044;52.726;-2.108;2023-07-29T02:59:13;99355.69;;;16.00;86.42
28935;BME280;16044;52.726;-2.108;2023-07-29T03:01:44;99348.91;;;16.02;86.14
28935;BME280;16044;52.726;-2.108;2023-07-29T03:04:14;99341.53;;;16.03;86.13
28935;BME280;16044;52.726;-2.108;2023-07-29T03:06:45;99337.63;;;15.98;86.58
28935;BME280;16044;52.726;-2.108;2023-07-29T03:09:15;99341.53;;;16.03;86.48
28935;BME280;16044;52.726;-2.108;2023-07-29T03:11:48;99341.78;;;16.01;86.52
28935;BME280;16044;52.726;-2.108;2023-07-29T03:14:19;99339.06;;;16.01;86.54
28935;BME280;16044;52.726;-2.108;2023-07-29T03:16:50;99333.31;;;16.03;86.48
28935;BME280;16044;52.726;-2.108;2023-07-29T03:19:20;99329.66;;;15.97;86.87
28935;BME280;16044;52.726;-2.108;2023-07-29T03:21:51;99327.41;;;15.94;87.01
28935;BME280;16044;52.726;-2.108;2023-07-29T03:24:21;99331.78;;;15.95;86.98
28935;BME280;16044;52.726;-2.108;2023-07-29T03:26:54;99330.16;;;15.94;87.09
28935;BME280;16044;52.726;-2.108;2023-07-29T03:29:24;99333.13;;;15.92;87.41
28935;BME280;16044;52.726;-2.108;2023-07-29T03:31:54;99327.66;;;15.92;87.30
28935;BME280;16044;52.726;-2.108;2023-07-29T03:34:25;99328.97;;;15.90;87.57
28935;BME280;16044;52.726;-2.108;2023-07-29T03:36:55;99325.97;;;15.91;87.43
28935;BME280;16044;52.726;-2.108;2023-07-29T03:39:26;99325.88;;;15.86;87.83
28935;BME280;16044;52.726;-2.108;2023-07-29T03:41:59;99319.34;;;15.87;87.60
28935;BME280;16044;52.726;-2.108;2023-07-29T03:44:30;99323.03;;;15.81;88.08
28935;BME280;16044;52.726;-2.108;2023-07-29T03:47:02;99320.06;;;15.83;87.98
28935;BME280;16044;52.726;-2.108;2023-07-29T03:49:33;99330.75;;;15.84;88.00
28935;BME280;16044;52.726;-2.108;2023-07-29T03:52:04;99323.84;;;15.82;88.39
28935;BME280;16044;52.726;-2.108;2023-07-29T03:54:35;99323.25;;;15.79;88.40
28935;BME280;16044;52.726;-2.108;2023-07-29T03:57:08;99325.75;;;15.81;88.12
28935;BME280;16044;52.726;-2.108;2023-07-29T03:59:38;99333.38;;;15.79;88.57
28935;BME280;16044;52.726;-2.108;2023-07-29T04:02:08;99328.13;;;15.77;88.45
28935;BME280;16044;52.726;-2.108;2023-07-29T04:04:39;99322.69;;;15.77;88.53
28935;BME280;16044;52.726;-2.108;2023-07-29T04:07:11;99325.41;;;15.77;88.53
28935;BME280;16044;52.726;-2.108;2023-07-29T04:09:41;99317.69;;;15.74;88.72
28935;BME280;16044;52.726;-2.108;2023-07-29T04:12:14;99320.28;;;15.69;88.95
28935;BME280;16044;52.726;-2.108;2023-07-29T04:14:48;99323.13;;;15.63;89.13
28935;BME280;16044;52.726;-2.108;2023-07-29T04:17:19;99326.59;;;15.58;89.25
28935;BME280;16044;52.726;-2.108;2023-07-29T04:19:49;99319.44;;;15.57;89.32
28935;BME280;16044;52.726;-2.108;2023-07-29T04:22:19;99321.22;;;15.51;89.68
28935;BME280;16044;52.726;-2.108;2023-07-29T04:24:50;99318.72;;;15.50;89.52
28935;BME280;16044;52.726;-2.108;2023-07-29T04:27:23;99311.63;;;15.49;89.88
28935;BME280;16044;52.726;-2.108;2023-07-29T04:29:53;99319.22;;;15.47;90.06
28935;BME280;16044;52.726;-2.108;2023-07-29T04:32:24;99328.47;;;15.46;90.54
28935;BME280;16044;52.726;-2.108;2023-07-29T04:34:54;99323.50;;;15.43;90.86
28935;BME280;16044;52.726;-2.108;2023-07-29T04:37:24;99326.34;;;15.48;90.75
28935;BME280;16044;52.726;-2.108;2023-07-29T04:39:54;99323.50;;;15.43;91.45
28935;BME280;16044;52.726;-2.108;2023-07-29T04:42:28;99330.97;;;15.47;91.28
28935;BME280;16044;52.726;-2.108;2023-07-29T04:44:58;99327.41;;;15.47;91.52
28935;BME280;16044;52.726;-2.108;2023-07-29T04:47:28;99315.41;;;15.48;91.88
28935;BME280;16044;52.726;-2.108;2023-07-29T04:49:59;99319.94;;;15.54;92.04
28935;BME280;16044;52.726;-2.108;2023-07-29T04:52:29;99329.56;;;15.56;92.21
28935;BME280;16044;52.726;-2.108;2023-07-29T04:54:59;99332.06;;;15.58;92.69
28935;BME280;16044;52.726;-2.108;2023-07-29T04:57:32;99331.56;;;15.61;92.38
28935;BME280;16044;52.726;-2.108;2023-07-29T05:00:03;99332.28;;;15.68;92.36
28935;BME280;16044;52.726;-2.108;2023-07-29T05:02:34;99337.28;;;15.71;92.31
28935;BME280;16044;52.726;-2.108;2023-07-29T05:05:05;99338.91;;;15.72;92.38
28935;BME280;16044;52.726;-2.108;2023-07-29T05:07:36;99342.25;;;15.74;92.39
28935;BME280;16044;52.726;-2.108;2023-07-29T05:10:08;99336.34;;;15.77;92.39
28935;BME280;16044;52.726;-2.108;2023-07-29T05:12:41;99331.97;;;15.76;92.73
28935;BME280;16044;52.726;-2.108;2023-07-29T05:15:11;99329.81;;;15.78;92.59
28935;BME280;16044;52.726;-2.108;2023-07-29T05:17:41;99333.22;;;15.86;92.12
28935;BME280;16044;52.726;-2.108;2023-07-29T05:20:12;99329.69;;;15.85;92.10
28935;BME280;16044;52.726;-2.108;2023-07-29T05:22:42;99332.63;;;15.84;92.40
28935;BME280;16044;52.726;-2.108;2023-07-29T05:25:12;99320.16;;;15.88;92.43
28935;BME280;16044;52.726;-2.108;2023-07-29T05:27:45;99334.25;;;16.08;92.39
28935;BME280;16044;52.726;-2.108;2023-07-29T05:30:16;99327.31;;;16.29;92.65
28935;BME280;16044;52.726;-2.108;2023-07-29T05:32:46;99328.94;;;16.42;91.74
28935;BME280;16044;52.726;-2.108;2023-07-29T05:35:17;99330.72;;;16.48;91.57
28935;BME280;16044;52.726;-2.108;2023-07-29T05:37:47;99325.91;;;16.55;91.04
28935;BME280;16044;52.726;-2.108;2023-07-29T05:40:18;99327.00;;;16.54;91.26
28935;BME280;16044;52.726;-2.108;2023-07-29T05:42:51;99330.91;;;16.59;90.91
28935;BME280;16044;52.726;-2.108;2023-07-29T05:45:21;99328.25;;;16.64;90.74
28935;BME280;16044;52.726;-2.108;2023-07-29T05:47:52;99327.06;;;16.60;91.10
28935;BME280;16044;52.726;-2.108;2023-07-29T05:50:23;99330.72;;;16.65;90.85
28935;BME280;16044;52.726;-2.108;2023-07-29T05:52:53;99332.06;;;16.63;90.91
28935;BME280;16044;52.726;-2.108;2023-07-29T05:55:23;99339.94;;;16.59;90.97
28935;BME280;16044;52.726;-2.108;2023-07-29T05:57:56;99340.91;;;16.53;91.59
28935;BME280;16044;52.726;-2.108;2023-07-29T06:00:27;99337.69;;;16.56;91.54
28935;BME280;16044;52.726;-2.108;2023-07-29T06:02:57;99342.81;;;16.52;91.90
28935;BME280;16044;52.726;-2.108;2023-07-29T06:05:28;99339.97;;;16.47;92.37
28935;BME280;16044;52.726;-2.108;2023-07-29T06:07:58;99342.72;;;16.47;92.37
28935;BME280;16044;52.726;-2.108;2023-07-29T06:10:28;99334.84;;;16.51;92.25
28935;BME280;16044;52.726;-2.108;2023-07-29T06:13:01;99340.81;;;16.48;93.13
28935;BME280;16044;52.726;-2.108;2023-07-29T06:15:31;99344.47;;;16.53;92.74
28935;BME280;16044;52.726;-2.108;2023-07-29T06:18:02;99345.16;;;16.61;92.64
28935;BME280;16044;52.726;-2.108;2023-07-29T06:20:32;99340.97;;;16.70;92.44
28935;BME280;16044;52.726;-2.108;2023-07-29T06:23:03;99346.25;;;16.88;92.24
28935;BME280;16044;52.726;-2.108;2023-07-29T06:25:33;99341.16;;;17.09;92.14
28935;BME280;16044;52.726;-2.108;2023-07-29T06:28:06;99353.59;;;17.17;91.51
28935;BME280;16044;52.726;-2.108;2023-07-29T06:30:37;99357.84;;;17.24;90.64
28935;BME280;16044;52.726;-2.108;2023-07-29T06:33:07;99351.78;;;17.22;90.11
28935;BME280;16044;52.726;-2.108;2023-07-29T06:35:38;99353.31;;;17.18;89.86
28935;BME280;16044;52.726;-2.108;2023-07-29T06:38:08;99356.91;;;17.19;90.34
28935;BME280;16044;52.726;-2.108;2023-07-29T06:40:38;99350.25;;;17.31;90.45
28935;BME280;16044;52.726;-2.108;2023-07-29T06:43:11;99339.47;;;17.42;90.01
28935;BME280;16044;52.726;-2.108;2023-07-29T06:45:42;99343.28;;;17.58;90.22
28935;BME280;16044;52.726;-2.108;2023-07-29T06:48:12;99349.25;;;17.71;89.35
28935;BME280;16044;52.726;-2.108;2023-07-29T06:50:42;99349.88;;;17.79;88.66
28935;BME280;16044;52.726;-2.108;2023-07-29T06:53:13;99344.47;;;18.01;87.71
28935;BME280;16044;52.726;-2.108;2023-07-29T06:55:43;99345.06;;;18.25;86.65
28935;BME280;16044;52.726;-2.108;2023-07-29T06:58:16;99345.34;;;18.50;85.62
28935;BME280;16044;52.726;-2.108;2023-07-29T07:00:47;99346.94;;;18.91;83.81
28935;BME280;16044;52.726;-2.108;2023-07-29T07:03:17;99348.84;;;19.22;82.72
28935;BME280;16044;52.726;-2.108;2023-07-29T07:05:48;99347.47;;;19.57;81.09
28935;BME280;16044;52.726;-2.108;2023-07-29T07:08:18;99340.69;;;19.70;77.95
28935;BME280;16044;52.726;-2.108;2023-07-29T07:10:48;99345.88;;;20.04;77.58
28935;BME280;16044;52.726;-2.108;2023-07-29T07:13:21;99344.06;;;20.35;76.17
28935;BME280;16044;52.726;-2.108;2023-07-29T07:15:54;99337.81;;;20.50;74.24
28935;BME280;16044;52.726;-2.108;2023-07-29T07:18:24;99344.25;;;20.76;73.04
28935;BME280;16044;52.726;-2.108;2023-07-29T07:20:55;99340.41;;;20.93;71.30
28935;BME280;16044;52.726;-2.108;2023-07-29T07:23:25;99339.88;;;21.16;69.64
28935;BME280;16044;52.726;-2.108;2023-07-29T07:25:55;99345.41;;;21.27;69.17
28935;BME280;16044;52.726;-2.108;2023-07-29T07:28:28;99337.13;;;21.21;66.17
28935;BME280;16044;52.726;-2.108;2023-07-29T07:30:59;99342.06;;;21.09;67.09
28935;BME280;16044;52.726;-2.108;2023-07-29T07:33:29;99351.44;;;20.93;67.09
28935;BME280;16044;52.726;-2.108;2023-07-29T07:35:59;99348.94;;;20.76;66.62
28935;BME280;16044;52.726;-2.108;2023-07-29T07:38:30;99352.38;;;20.51;67.60
28935;BME280;16044;52.726;-2.108;2023-07-29T07:41:00;99357.81;;;20.30;67.82
28935;BME280;16044;52.726;-2.108;2023-07-29T07:43:33;99362.66;;;20.02;68.38
28935;BME280;16044;52.726;-2.108;2023-07-29T07:46:04;99366.22;;;19.65;70.10
28935;BME280;16044;52.726;-2.108;2023-07-29T07:48:35;99369.91;;;19.44;70.74
28935;BME280;16044;52.726;-2.108;2023-07-29T07:51:11;99370.81;;;19.22;71.60
28935;BME280;16044;52.726;-2.108;2023-07-29T07:53:42;99375.84;;;18.98;72.81
28935;BME280;16044;52.726;-2.108;2023-07-29T07:56:13;99375.41;;;18.84;73.36
28935;BME280;16044;52.726;-2.108;2023-07-29T07:58:45;99386.50;;;18.73;74.10
28935;BME280;16044;52.726;-2.108;2023-07-29T08:01:16;99378.56;;;18.49;76.58
28935;BME280;16044;52.726;-2.108;2023-07-29T08:03:46;99374.13;;;18.48;76.92
28935;BME280;16044;52.726;-2.108;2023-07-29T08:06:17;99374.06;;;18.43;78.07
28935;BME280;16044;52.726;-2.108;2023-07-29T08:08:47;99364.38;;;18.35;79.16
28935;BME280;16044;52.726;-2.108;2023-07-29T08:11:17;99368.97;;;18.51;79.65
28935;BME280;16044;52.726;-2.108;2023-07-29T08:13:50;99364.03;;;18.76;78.87
28935;BME280;16044;52.726;-2.108;2023-07-29T08:16:20;99371.72;;;19.01;78.49
28935;BME280;16044;52.726;-2.108;2023-07-29T08:18:51;99365.63;;;19.26;77.59
28935;BME280;16044;52.726;-2.108;2023-07-29T08:21:21;99361.19;;;19.52;76.26
28935;BME280;16044;52.726;-2.108;2023-07-29T08:23:52;99355.84;;;19.73;74.93
28935;BME280;16044;52.726;-2.108;2023-07-29T08:26:22;99351.84;;;19.91;72.15
28935;BME280;16044;52.726;-2.108;2023-07-29T08:28:55;99353.34;;;20.14;71.46
28935;BME280;16044;52.726;-2.108;2023-07-29T08:31:25;99355.03;;;20.20;69.00
28935;BME280;16044;52.726;-2.108;2023-07-29T08:33:56;99356.19;;;20.34;68.77
28935;BME280;16044;52.726;-2.108;2023-07-29T08:36:26;99353.22;;;20.46;68.00
28935;BME280;16044;52.726;-2.108;2023-07-29T08:38:56;99352.97;;;20.58;65.69
28935;BME280;16044;52.726;-2.108;2023-07-29T08:41:32;99353.03;;;20.73;65.58
28935;BME280;16044;52.726;-2.108;2023-07-29T08:44:12;99351.69;;;20.86;62.79
28935;BME280;16044;52.726;-2.108;2023-07-29T08:46:47;99358.34;;;21.00;60.84
28935;BME280;16044;52.726;-2.108;2023-07-29T08:49:18;99353.66;;;21.11;59.93
28935;BME280;16044;52.726;-2.108;2023-07-29T08:51:51;99352.53;;;21.07;58.57
28935;BME280;16044;52.726;-2.108;2023-07-29T08:54:23;99356.69;;;21.10;58.96
28935;BME280;16044;52.726;-2.108;2023-07-29T08:56:54;99360.25;;;21.00;58.68
28935;BME280;16044;52.726;-2.108;2023-07-29T08:59:28;99360.81;;;20.97;59.10
28935;BME280;16044;52.726;-2.108;2023-07-29T09:01:58;99355.81;;;20.83;59.46
28935;BME280;16044;52.726;-2.108;2023-07-29T09:04:29;99360.75;;;20.71;59.45
28935;BME280;16044;52.726;-2.108;2023-07-29T09:07:00;99352.22;;;20.73;60.58
28935;BME280;16044;52.726;-2.108;2023-07-29T09:09:31;99348.63;;;20.77;60.95
28935;BME280;16044;52.726;-2.108;2023-07-29T09:12:02;99354.72;;;20.84;61.07
28935;BME280;16044;52.726;-2.108;2023-07-29T09:14:36;99349.25;;;20.95;60.55
28935;BME280;16044;52.726;-2.108;2023-07-29T09:17:07;99345.41;;;21.27;60.32
28935;BME280;16044;52.726;-2.108;2023-07-29T09:19:39;99343.78;;;21.46;59.04
28935;BME280;16044;52.726;-2.108;2023-07-29T09:22:17;99352.06;;;21.51;57.60
28935;BME280;16044;52.726;-2.108;2023-07-29T09:24:48;99350.91;;;21.47;57.27
28935;BME280;16044;52.726;-2.108;2023-07-29T09:27:24;99343.22;;;21.44;57.91
28935;BME280;16044;52.726;-2.108;2023-07-29T09:29:57;99355.06;;;21.45;57.58
28935;BME280;16044;52.726;-2.108;2023-07-29T09:32:29;99352.03;;;21.31;56.94
28935;BME280;16044;52.726;-2.108;2023-07-29T09:35:00;99355.31;;;21.17;57.47
28935;BME280;16044;52.726;-2.108;2023-07-29T09:37:31;99356.13;;;21.02;57.01
28935;BME280;16044;52.726;-2.108;2023-07-29T09:40:02;99367.13;;;20.87;55.24
28935;BME280;16044;52.726;-2.108;2023-07-29T09:42:33;99365.16;;;20.77;54.89
28935;BME280;16044;52.726;-2.108;2023-07-29T09:45:07;99355.22;;;20.71;54.27
28935;BME280;16044;52.726;-2.108;2023-07-29T09:47:38;99360.72;;;20.66;54.47
28935;BME280;16044;52.726;-2.108;2023-07-29T09:50:09;99361.84;;;20.65;55.71
28935;BME280;16044;52.726;-2.108;2023-07-29T09:52:40;99359.59;;;20.57;56.31
28935;BME280;16044;52.726;-2.108;2023-07-29T09:55:12;99354.66;;;20.64;55.52
28935;BME280;16044;52.726;-2.108;2023-07-29T09:57:43;99373.41;;;20.72;54.84
28935;BME280;16044;52.726;-2.108;2023-07-29T10:00:16;99365.72;;;20.84;54.26
28935;BME280;16044;52.726;-2.108;2023-07-29T10:02:47;99362.75;;;20.96;54.51
28935;BME280;16044;52.726;-2.108;2023-07-29T10:05:18;99364.69;;;21.21;53.19
28935;BME280;16044;52.726;-2.108;2023-07-29T10:07:48;99372.41;;;21.35;50.47
28935;BME280;16044;52.726;-2.108;2023-07-29T10:10:20;99371.91;;;21.53;50.96
28935;BME280;16044;52.726;-2.108;2023-07-29T10:12:50;99374.09;;;21.67;49.96
28935;BME280;16044;52.726;-2.108;2023-07-29T10:15:25;99374.59;;;21.79;48.70
28935;BME280;16044;52.726;-2.108;2023-07-29T10:17:56;99363.56;;;21.79;45.95
28935;BME280;16044;52.726;-2.108;2023-07-29T10:20:27;99367.47;;;21.57;45.48
28935;BME280;16044;52.726;-2.108;2023-07-29T10:23:00;99365.84;;;21.51;46.41
28935;BME280;16044;52.726;-2.108;2023-07-29T10:25:36;99363.34;;;21.45;45.98
28935;BME280;16044;52.726;-2.108;2023-07-29T10:28:11;99371.88;;;21.58;47.05
28935;BME280;16044;52.726;-2.108;2023-07-29T10:30:45;99369.94;;;21.69;47.06
28935;BME280;16044;52.726;-2.108;2023-07-29T10:33:16;99370.22;;;21.73;46.16
28935;BME280;16044;52.726;-2.108;2023-07-29T10:35:47;99374.88;;;21.83;46.64
28935;BME280;16044;52.726;-2.108;2023-07-29T10:38:17;99379.00;;;21.85;46.61
28935;BME280;16044;52.726;-2.108;2023-07-29T10:40:52;99386.72;;;21.88;46.10
28935;BME280;16044;52.726;-2.108;2023-07-29T10:43:27;99379.53;;;22.03;46.71
28935;BME280;16044;52.726;-2.108;2023-07-29T10:46:19;99387.25;;;22.11;46.09
28935;BME280;16044;52.726;-2.108;2023-07-29T10:48:55;99395.53;;;22.06;47.04
28935;BME280;16044;52.726;-2.108;2023-07-29T10:51:27;99387.81;;;22.03;43.81
28935;BME280;16044;52.726;-2.108;2023-07-29T10:54:03;99393.34;;;21.92;44.14
28935;BME280;16044;52.726;-2.108;2023-07-29T10:56:41;99388.91;;;21.96;44.31
28935;BME280;16044;52.726;-2.108;2023-07-29T10:59:31;99394.44;;;22.12;44.73
28935;BME280;16044;52.726;-2.108;2023-07-29T11:02:12;99391.94;;;22.10;44.05
28935;BME280;16044;52.726;-2.108;2023-07-29T11:04:47;99401.00;;;22.21;44.69
28935;BME280;16044;52.726;-2.108;2023-07-29T11:07:27;99398.81;;;22.18;45.07
28935;BME280;16044;52.726;-2.108;2023-07-29T11:09:59;99394.94;;;22.24;44.69
28935;BME280;16044;52.726;-2.108;2023-07-29T11:12:44;99409.31;;;22.06;44.25
28935;BME280;16044;52.726;-2.108;2023-07-29T11:15:20;99400.25;;;21.95;44.74
28935;BME280;16044;52.726;-2.108;2023-07-29T11:17:55;99393.31;;;22.08;45.45
28935;BME280;16044;52.726;-2.108;2023-07-29T11:20:27;99386.97;;;22.17;45.05
28935;BME280;16044;52.726;-2.108;2023-07-29T11:23:01;99387.13;;;22.52;44.69
28935;BME280;16044;52.726;-2.108;2023-07-29T11:25:32;99384.50;;;22.81;45.57
28935;BME280;16044;52.726;-2.108;2023-07-29T11:28:03;99392.75;;;22.91;43.18
28935;BME280;16044;52.726;-2.108;2023-07-29T11:30:34;99393.56;;;22.87;42.94
28935;BME280;16044;52.726;-2.108;2023-07-29T11:33:07;99395.81;;;22.80;42.91
28935;BME280;16044;52.726;-2.108;2023-07-29T11:35:37;99388.69;;;22.73;43.63
28935;BME280;16044;52.726;-2.108;2023-07-29T11:38:08;99398.94;;;22.63;44.06
28935;BME280;16044;52.726;-2.108;2023-07-29T11:40:38;99396.75;;;22.60;44.34
28935;BME280;16044;52.726;-2.108;2023-07-29T11:43:08;99400.47;;;22.29;44.24
28935;BME280;16044;52.726;-2.108;2023-07-29T11:45:40;99411.19;;;22.41;43.49
28935;BME280;16044;52.726;-2.108;2023-07-29T11:48:26;99396.25;;;22.47;43.31
28935;BME280;16044;52.726;-2.108;2023-07-29T11:50:57;99402.81;;;22.67;43.34
28935;BME280;16044;52.726;-2.108;2023-07-29T11:53:28;99404.63;;;22.87;43.44
28935;BME280;16044;52.726;-2.108;2023-07-29T11:55:59;99403.47;;;23.03;42.21
28935;BME280;16044;52.726;-2.108;2023-07-29T11:58:30;99403.72;;;23.07;41.99
28935;BME280;16044;52.726;-2.108;2023-07-29T12:01:01;99402.38;;;22.94;41.77
28935;BME280;16044;52.726;-2.108;2023-07-29T12:03:35;99414.94;;;22.76;41.74
28935;BME280;16044;52.726;-2.108;2023-07-29T12:06:10;99403.66;;;22.57;42.61
28935;BME280;16044;52.726;-2.108;2023-07-29T12:08:41;99405.84;;;22.70;43.11
28935;BME280;16044;52.726;-2.108;2023-07-29T12:11:12;99406.38;;;22.72;43.43
28935;BME280;16044;52.726;-2.108;2023-07-29T12:13:44;99407.44;;;22.82;43.39
28935;BME280;16044;52.726;-2.108;2023-07-29T12:16:16;99399.63;;;22.94;43.39
28935;BME280;16044;52.726;-2.108;2023-07-29T12:18:50;99401.75;;;23.12;43.38
28935;BME280;16044;52.726;-2.108;2023-07-29T12:21:20;99399.69;;;23.28;43.03
28935;BME280;16044;52.726;-2.108;2023-07-29T12:23:51;99407.34;;;23.42;42.87
28935;BME280;16044;52.726;-2.108;2023-07-29T12:26:28;99391.47;;;23.58;41.87
28935;BME280;16044;52.726;-2.108;2023-07-29T12:28:59;99387.50;;;23.69;42.20
28935;BME280;16044;52.726;-2.108;2023-07-29T12:31:31;99397.38;;;23.75;42.55
28935;BME280;16044;52.726;-2.108;2023-07-29T12:34:04;99408.44;;;23.80;41.96
28935;BME280;16044;52.726;-2.108;2023-07-29T12:36:42;99406.22;;;23.77;41.76
28935;BME280;16044;52.726;-2.108;2023-07-29T12:39:18;99415.63;;;23.76;40.69
28935;BME280;16044;52.726;-2.108;2023-07-29T12:41:49;99406.22;;;23.77;40.45
28935;BME280;16044;52.726;-2.108;2023-07-29T12:44:20;99410.22;;;23.61;41.07
28935;BME280;16044;52.726;-2.108;2023-07-29T12:46:51;99407.00;;;23.53;40.30
28935;BME280;16044;52.726;-2.108;2023-07-29T12:49:25;99410.50;;;23.25;41.56
28935;BME280;16044;52.726;-2.108;2023-07-29T12:51:56;99417.75;;;23.15;41.52
28935;BME280;16044;52.726;-2.108;2023-07-29T12:54:27;99417.81;;;23.05;42.03
28935;BME280;16044;52.726;-2.108;2023-07-29T12:56:57;99421.72;;;22.94;42.24
28935;BME280;16044;52.726;-2.108;2023-07-29T12:59:28;99426.47;;;22.83;42.60
28935;BME280;16044;52.726;-2.108;2023-07-29T13:01:58;99421.22;;;22.87;43.28
28935;BME280;16044;52.726;-2.108;2023-07-29T13:04:33;99422.06;;;22.82;44.07
28935;BME280;16044;52.726;-2.108;2023-07-29T13:07:04;99419.50;;;22.96;44.22
28935;BME280;16044;52.726;-2.108;2023-07-29T13:09:35;99425.28;;;23.00;44.82
28935;BME280;16044;52.726;-2.108;2023-07-29T13:12:06;99421.06;;;23.18;45.51
28935;BME280;16044;52.726;-2.108;2023-07-29T13:14:37;99414.81;;;23.41;44.60